^^
Your Local Weather - Clay, NY Station Historical Data
Daily Summary for December 12, 2017 Units:  English    Metric   Both
« Previous Day
Next Day »
Daily Weekly Monthly Yearly Custom
  High: Low: Average:
Temperature: 32.7 °F 14.5 °F 26 °F
Dew Point: 30.9 °F 5.6 °F 21.1 °F
Humidity: 93% 61% 82%
Wind Speed: 7.0mph 0.0mph 3mph
Wind Gust: 15.0mph - -
Wind- - South
Pressure: 29.76 in 29.44 in -
Precipitation: 0.00 in    
Historical Graphs
 
 
Tabular Data for December 12, 2017
Time Temperature Dew Point Pressure Wind Wind Speed Wind Gust Humidity Rainfall Rate (Hourly) solar
00:02 26.0 °F 22.9 °F 29.76 in East 2.0 mph 3.0 mph 88% 0.00 in 0 W/m2
00:14 26.1 °F 23.3 °F 29.76 in ENE 3.0 mph 5.0 mph 89% 0.00 in 0 W/m2
00:20 26.1 °F 23.3 °F 29.75 in ESE 3.0 mph 4.0 mph 89% 0.00 in 0 W/m2
00:38 26.2 °F 23.7 °F 29.74 in ENE 2.0 mph 4.0 mph 90% 0.00 in 0 W/m2
00:50 26.3 °F 23.8 °F 29.73 in ENE 2.0 mph 2.0 mph 90% 0.00 in 0 W/m2
00:56 26.3 °F 23.8 °F 29.73 in ENE 3.0 mph 3.0 mph 90% 0.00 in 0 W/m2
01:02 26.3 °F 23.8 °F 29.73 in ENE 3.0 mph 4.0 mph 90% 0.00 in 0 W/m2
01:14 26.3 °F 24.0 °F 29.72 in ESE 2.0 mph 2.0 mph 91% 0.00 in 0 W/m2
01:26 26.4 °F 24.1 °F 29.71 in East 2.0 mph 2.0 mph 91% 0.00 in 0 W/m2
01:32 26.5 °F 24.2 °F 29.70 in East 2.0 mph 5.0 mph 91% 0.00 in 0 W/m2
01:38 26.6 °F 24.3 °F 29.70 in ENE 2.0 mph 5.0 mph 91% 0.00 in 0 W/m2
01:44 26.6 °F 24.3 °F 29.70 in ENE 2.0 mph 4.0 mph 91% 0.00 in 0 W/m2
01:50 26.7 °F 24.4 °F 29.70 in ESE 2.0 mph 2.0 mph 91% 0.00 in 0 W/m2
02:02 26.8 °F 24.5 °F 29.69 in East 2.0 mph 4.0 mph 91% 0.00 in 0 W/m2
02:08 26.9 °F 24.6 °F 29.69 in East 2.0 mph 4.0 mph 91% 0.00 in 0 W/m2
02:20 27.0 °F 24.7 °F 29.69 in ENE 2.0 mph 4.0 mph 91% 0.00 in 0 W/m2
02:32 27.1 °F 25.1 °F 29.67 in East 2.0 mph 5.0 mph 92% 0.00 in 0 W/m2
02:38 27.2 °F 25.2 °F 29.67 in ENE 2.0 mph 5.0 mph 92% 0.00 in 0 W/m2
02:44 27.3 °F 25.3 °F 29.66 in ESE 2.0 mph 3.0 mph 92% 0.00 in 0 W/m2
02:50 27.3 °F 25.3 °F 29.66 in SE 2.0 mph 2.0 mph 92% 0.00 in 0 W/m2
02:56 27.4 °F 25.4 °F 29.65 in ENE 2.0 mph 2.0 mph 92% 0.00 in 0 W/m2
03:02 27.5 °F 25.5 °F 29.64 in ENE 2.0 mph 2.0 mph 92% 0.00 in 0 W/m2
03:08 27.5 °F 25.5 °F 29.64 in ESE 2.0 mph 3.0 mph 92% 0.00 in 0 W/m2
03:14 27.6 °F 25.6 °F 29.64 in ENE 1.0 mph 2.0 mph 92% 0.00 in 0 W/m2
03:20 27.6 °F 25.6 °F 29.63 in East 2.0 mph 2.0 mph 92% 0.00 in 0 W/m2
03:32 27.7 °F 25.7 °F 29.61 in East 2.0 mph 2.0 mph 92% 0.00 in 0 W/m2
03:38 27.7 °F 25.7 °F 29.61 in East 2.0 mph 2.0 mph 92% 0.00 in 0 W/m2
03:44 27.8 °F 25.8 °F 29.60 in SE 1.0 mph 2.0 mph 92% 0.00 in 0 W/m2
03:50 27.8 °F 25.8 °F 29.60 in ENE 2.0 mph 2.0 mph 92% 0.00 in 0 W/m2
03:56 27.9 °F 25.9 °F 29.59 in ESE 2.0 mph 2.0 mph 92% 0.00 in 0 W/m2
04:02 28.0 °F 26.0 °F 29.59 in East 1.0 mph 5.0 mph 92% 0.00 in 0 W/m2
04:08 28.0 °F 26.0 °F 29.59 in ESE 1.0 mph 5.0 mph 92% 0.00 in 0 W/m2
04:14 28.0 °F 26.0 °F 29.59 in East 1.0 mph 3.0 mph 92% 0.00 in 0 W/m2
04:20 28.1 °F 26.1 °F 29.58 in East 2.0 mph 2.0 mph 92% 0.00 in 0 W/m2
04:34 28.1 °F 26.1 °F 29.58 in East 1.0 mph 2.0 mph 92% 0.00 in 0 W/m2
04:40 28.2 °F 26.2 °F 29.57 in ENE 1.0 mph 1.0 mph 92% 0.00 in 0 W/m2
04:52 28.3 °F 26.3 °F 29.56 in ENE 1.0 mph 3.0 mph 92% 0.00 in 0 W/m2
05:04 28.5 °F 26.5 °F 29.55 in ENE 1.0 mph 2.0 mph 92% 0.00 in 0 W/m2
05:10 28.5 °F 26.7 °F 29.55 in East 1.0 mph 1.0 mph 93% 0.00 in 0 W/m2
05:16 28.6 °F 26.8 °F 29.55 in ENE 1.0 mph 1.0 mph 93% 0.00 in 0 W/m2
05:22 28.7 °F 26.7 °F 29.54 in Calm   1.0 mph 92% 0.00 in 0 W/m2
05:28 28.8 °F 26.8 °F 29.53 in ENE 1.0 mph 3.0 mph 92% 0.00 in 0 W/m2
05:34 28.9 °F 26.9 °F 29.53 in ENE 1.0 mph 2.0 mph 92% 0.00 in 0 W/m2
05:40 29.0 °F 27.2 °F 29.53 in East 1.0 mph 1.0 mph 93% 0.00 in 0 W/m2
05:46 29.1 °F 27.3 °F 29.53 in ENE 1.0 mph 2.0 mph 93% 0.00 in 0 W/m2
05:54 29.2 °F 27.4 °F 29.53 in ENE 1.0 mph 1.0 mph 93% 0.00 in 0 W/m2
06:06 29.2 °F 27.4 °F 29.52 in ENE 1.0 mph 3.0 mph 93% 0.00 in 0 W/m2
06:12 29.3 °F 27.5 °F 29.52 in ENE 1.0 mph 1.0 mph 93% 0.00 in 0 W/m2
06:36 29.3 °F 27.5 °F 29.51 in ENE 2.0 mph 4.0 mph 93% 0.00 in 0 W/m2
06:42 29.4 °F 27.6 °F 29.51 in ENE 1.0 mph 1.0 mph 93% 0.00 in 0 W/m2
07:06 29.4 °F 27.6 °F 29.51 in ENE 1.0 mph 3.0 mph 93% 0.00 in 0 W/m2
07:12 29.4 °F 27.6 °F 29.50 in NE 2.0 mph 2.0 mph 93% 0.00 in 0 W/m2
07:18 29.3 °F 27.5 °F 29.50 in ENE 1.0 mph 2.0 mph 93% 0.00 in 0 W/m2
07:42 29.2 °F 27.4 °F 29.50 in ENE 1.0 mph 2.0 mph 93% 0.00 in 0 W/m2
07:48 29.2 °F 27.4 °F 29.49 in ENE 1.0 mph 2.0 mph 93% 0.00 in 0 W/m2
07:54 29.2 °F 27.4 °F 29.49 in ENE 1.0 mph 2.0 mph 93% 0.00 in 0 W/m2
08:00 29.2 °F 27.4 °F 29.49 in ENE 1.0 mph 1.0 mph 93% 0.00 in 0 W/m2
08:06 29.2 °F 27.4 °F 29.49 in ENE 1.0 mph 2.0 mph 93% 0.00 in 0 W/m2
08:12 29.3 °F 27.5 °F 29.48 in ENE 1.0 mph 2.0 mph 93% 0.00 in 5 W/m2
08:18 29.4 °F 27.6 °F 29.48 in ENE 1.0 mph 2.0 mph 93% 0.00 in 7 W/m2
08:24 29.5 °F 27.7 °F 29.48 in ENE 1.0 mph 2.0 mph 93% 0.00 in 14 W/m2
08:42 29.9 °F 28.1 °F 29.48 in ENE 1.0 mph 2.0 mph 93% 0.00 in 14 W/m2
08:48 30.0 °F 28.2 °F 29.48 in ENE 1.0 mph 2.0 mph 93% 0.00 in 12 W/m2
09:00 30.1 °F 28.3 °F 29.47 in ENE 1.0 mph 1.0 mph 93% 0.00 in 11 W/m2
09:06 30.2 °F 28.4 °F 29.47 in Calm   1.0 mph 93% 0.00 in 7 W/m2
09:12 30.2 °F 28.4 °F 29.47 in ENE 1.0 mph 1.0 mph 93% 0.00 in 9 W/m2
09:18 30.2 °F 28.4 °F 29.47 in ENE 1.0 mph 1.0 mph 93% 0.00 in 9 W/m2
09:24 30.3 °F 28.5 °F 29.47 in ENE 1.0 mph 2.0 mph 93% 0.00 in 14 W/m2
09:30 30.4 °F 28.6 °F 29.47 in ENE 1.0 mph 1.0 mph 93% 0.00 in 12 W/m2
09:42 30.5 °F 28.7 °F 29.46 in Calm   1.0 mph 93% 0.00 in 11 W/m2
09:48 30.7 °F 28.9 °F 29.46 in Calm   1.0 mph 93% 0.00 in 16 W/m2
10:00 30.8 °F 29.0 °F 29.46 in Calm     93% 0.00 in 14 W/m2
10:06 30.9 °F 29.1 °F 29.45 in Calm   1.0 mph 93% 0.00 in 12 W/m2
10:12 30.9 °F 29.1 °F 29.45 in Calm   2.0 mph 93% 0.00 in 12 W/m2
10:18 31.0 °F 29.2 °F 29.45 in Calm   2.0 mph 93% 0.00 in 11 W/m2
10:24 31.0 °F 29.2 °F 29.45 in Calm     93% 0.00 in 14 W/m2
10:30 31.1 °F 29.3 °F 29.45 in Calm     93% 0.00 in 12 W/m2
10:36 31.1 °F 29.3 °F 29.45 in Calm   1.0 mph 93% 0.00 in 12 W/m2
10:42 31.2 °F 29.4 °F 29.45 in Calm     93% 0.00 in 11 W/m2
10:48 31.2 °F 29.4 °F 29.45 in Calm     93% 0.00 in 12 W/m2
10:54 31.3 °F 29.5 °F 29.44 in Calm     93% 0.00 in 12 W/m2
11:00 31.3 °F 29.5 °F 29.45 in Calm     93% 0.00 in 14 W/m2
11:18 31.5 °F 29.7 °F 29.44 in Calm     93% 0.00 in 12 W/m2
11:24 31.5 °F 29.7 °F 29.45 in Calm     93% 0.00 in 12 W/m2
11:30 31.6 °F 29.8 °F 29.44 in Calm     93% 0.00 in 12 W/m2
11:36 31.6 °F 29.8 °F 29.44 in Calm     93% 0.00 in 14 W/m2
12:00 32.1 °F 30.3 °F 29.44 in ENE 1.0 mph 1.0 mph 93% 0.00 in 28 W/m2
12:06 32.2 °F 30.4 °F 29.44 in ENE 1.0 mph 1.0 mph 93% 0.00 in 30 W/m2
12:18 32.5 °F 30.7 °F 29.44 in WSW 2.0 mph 4.0 mph 93% 0.00 in 32 W/m2
12:24 32.6 °F 30.8 °F 29.44 in WSW 2.0 mph 3.0 mph 93% 0.00 in 30 W/m2
12:30 32.7 °F 30.9 °F 29.44 in West 2.0 mph 2.0 mph 93% 0.00 in 26 W/m2
12:36 32.7 °F 30.9 °F 29.44 in WSW 2.0 mph 2.0 mph 93% 0.00 in 18 W/m2
12:42 32.7 °F 30.9 °F 29.44 in WSW 2.0 mph 3.0 mph 93% 0.00 in 14 W/m2
12:48 32.6 °F 30.8 °F 29.44 in WSW 2.0 mph 8.0 mph 93% 0.00 in 12 W/m2
13:06 32.6 °F 30.8 °F 29.44 in WSW 4.0 mph 5.0 mph 93% 0.00 in 25 W/m2
13:12 32.6 °F 30.5 °F 29.44 in WNW 4.0 mph 4.0 mph 92% 0.00 in 23 W/m2
13:24 32.5 °F 30.4 °F 29.44 in West 3.0 mph 5.0 mph 92% 0.00 in 11 W/m2
13:30 32.4 °F 30.1 °F 29.44 in West 3.0 mph 3.0 mph 91% 0.00 in 12 W/m2
13:42 31.8 °F 29.5 °F 29.45 in West 5.0 mph 13.0 mph 91% 0.00 in 23 W/m2
13:48 31.2 °F 28.6 °F 29.46 in NW 6.0 mph 13.0 mph 90% 0.00 in 23 W/m2
13:54 30.6 °F 27.7 °F 29.46 in West 6.0 mph 8.0 mph 89% 0.00 in 21 W/m2
14:06 29.6 °F 26.8 °F 29.47 in WNW 6.0 mph 7.0 mph 89% 0.00 in 21 W/m2
14:30 29.0 °F 24.5 °F 29.48 in West 5.0 mph 6.0 mph 83% 0.00 in 23 W/m2
14:36 29.0 °F 24.2 °F 29.47 in WSW 5.0 mph 7.0 mph 82% 0.00 in 23 W/m2
14:42 29.0 °F 23.9 °F 29.48 in South 5.0 mph 6.0 mph 81% 0.00 in 21 W/m2
14:48 29.0 °F 24.2 °F 29.48 in West 4.0 mph 10.0 mph 82% 0.00 in 23 W/m2
15:00 28.9 °F 23.5 °F 29.48 in WSW 5.0 mph 5.0 mph 80% 0.00 in 21 W/m2
15:06 28.7 °F 22.4 °F 29.49 in West 6.0 mph 8.0 mph 77% 0.00 in 21 W/m2
15:18 28.6 °F 21.7 °F 29.49 in West 5.0 mph 5.0 mph 75% 0.00 in 19 W/m2
15:24 28.6 °F 21.7 °F 29.49 in West 5.0 mph 9.0 mph 75% 0.00 in 18 W/m2
15:30 28.6 °F 21.4 °F 29.50 in WSW 5.0 mph 5.0 mph 74% 0.00 in 14 W/m2
15:36 28.5 °F 20.9 °F 29.50 in SSW 6.0 mph 10.0 mph 73% 0.00 in 9 W/m2
15:48 28.2 °F 20.7 °F 29.51 in West 3.0 mph 6.0 mph 73% 0.00 in 5 W/m2
15:54 28.2 °F 20.3 °F 29.51 in WSW 4.0 mph 6.0 mph 72% 0.00 in 5 W/m2
16:06 27.9 °F 20.0 °F 29.51 in WNW 5.0 mph 7.0 mph 72% 0.00 in 0 W/m2
16:12 27.7 °F 19.8 °F 29.51 in WSW 5.0 mph 5.0 mph 72% 0.00 in 0 W/m2
16:24 27.2 °F 19.7 °F 29.52 in West 4.0 mph 6.0 mph 73% 0.00 in 0 W/m2
16:36 26.9 °F 19.7 °F 29.53 in WNW 5.0 mph 5.0 mph 74% 0.00 in 0 W/m2
16:42 26.7 °F 19.5 °F 29.53 in NW 4.0 mph 5.0 mph 74% 0.00 in 0 W/m2
16:48 26.6 °F 19.4 °F 29.53 in WNW 5.0 mph 6.0 mph 74% 0.00 in 0 W/m2
17:00 26.4 °F 18.3 °F 29.53 in WNW 5.0 mph 5.0 mph 71% 0.00 in 0 W/m2
17:06 26.3 °F 17.2 °F 29.53 in WNW 5.0 mph 5.0 mph 68% 0.00 in 0 W/m2
17:18 26.0 °F 16.9 °F 29.54 in WNW 5.0 mph 5.0 mph 68% 0.00 in 0 W/m2
17:36 25.0 °F 16.6 °F 29.55 in West 5.0 mph 6.0 mph 70% 0.00 in 0 W/m2
17:42 24.9 °F 16.2 °F 29.55 in WSW 4.0 mph 4.0 mph 69% 0.00 in 0 W/m2
17:48 24.8 °F 15.7 °F 29.55 in West 5.0 mph 9.0 mph 68% 0.00 in 0 W/m2
17:54 24.7 °F 15.6 °F 29.55 in West 6.0 mph 7.0 mph 68% 0.00 in 0 W/m2
18:00 24.5 °F 15.4 °F 29.55 in SSW 5.0 mph 6.0 mph 68% 0.00 in 0 W/m2
18:12 24.2 °F 15.2 °F 29.55 in WNW 6.0 mph 9.0 mph 68% 0.00 in 0 W/m2
18:18 24.1 °F 14.7 °F 29.55 in NW 6.0 mph 11.0 mph 67% 0.00 in 0 W/m2
18:24 24.0 °F 14.3 °F 29.55 in SW 7.0 mph 13.0 mph 66% 0.00 in 0 W/m2
18:30 23.8 °F 14.4 °F 29.55 in West 6.0 mph 6.0 mph 67% 0.00 in 0 W/m2
18:36 23.5 °F 14.5 °F 29.55 in WSW 4.0 mph 6.0 mph 68% 0.00 in 0 W/m2
18:48 23.1 °F 13.8 °F 29.56 in West 5.0 mph 7.0 mph 67% 0.00 in 0 W/m2
18:54 22.9 °F 12.9 °F 29.56 in WSW 6.0 mph 7.0 mph 65% 0.00 in 0 W/m2
19:06 22.3 °F 12.3 °F 29.56 in WNW 4.0 mph 5.0 mph 65% 0.00 in 0 W/m2
19:18 21.7 °F 11.7 °F 29.56 in SW 5.0 mph 5.0 mph 65% 0.00 in 0 W/m2
19:24 21.3 °F 11.4 °F 29.56 in West 4.0 mph 4.0 mph 65% 0.00 in 0 W/m2
19:36 21.0 °F 11.1 °F 29.56 in WNW 5.0 mph 9.0 mph 65% 0.00 in 0 W/m2
19:42 20.9 °F 10.6 °F 29.56 in West 5.0 mph 5.0 mph 64% 0.00 in 0 W/m2
19:48 20.8 °F 10.9 °F 29.56 in West 4.0 mph 6.0 mph 65% 0.00 in 0 W/m2
19:54 20.6 °F 10.7 °F 29.56 in NW 5.0 mph 5.0 mph 65% 0.00 in 0 W/m2
20:00 20.4 °F 10.8 °F 29.56 in WNW 5.0 mph 5.0 mph 66% 0.00 in 0 W/m2
20:18 19.6 °F 9.4 °F 29.56 in SW 6.0 mph 7.0 mph 64% 0.00 in 0 W/m2
20:30 19.1 °F 8.9 °F 29.56 in West 5.0 mph 5.0 mph 64% 0.00 in 0 W/m2
20:36 18.8 °F 8.3 °F 29.56 in West 5.0 mph 9.0 mph 63% 0.00 in 0 W/m2
20:42 18.6 °F 8.1 °F 29.56 in WSW 5.0 mph 9.0 mph 63% 0.00 in 0 W/m2
21:00 18.1 °F 6.9 °F 29.56 in SW 6.0 mph 10.0 mph 61% 0.00 in 0 W/m2
21:06 17.8 °F 6.6 °F 29.56 in West 6.0 mph 10.0 mph 61% 0.00 in 0 W/m2
21:12 17.6 °F 6.4 °F 29.55 in WSW 5.0 mph 6.0 mph 61% 0.00 in 0 W/m2
21:18 17.4 °F 6.2 °F 29.55 in WSW 5.0 mph 10.0 mph 61% 0.00 in 0 W/m2
21:24 17.1 °F 6.3 °F 29.55 in WSW 5.0 mph 7.0 mph 62% 0.00 in 0 W/m2
21:30 17.0 °F 6.2 °F 29.55 in SW 5.0 mph 5.0 mph 62% 0.00 in 0 W/m2
21:36 16.9 °F 6.5 °F 29.55 in WSW 5.0 mph 12.0 mph 63% 0.00 in 0 W/m2
21:42 16.7 °F 6.3 °F 29.54 in WSW 6.0 mph 9.0 mph 63% 0.00 in 0 W/m2
21:48 16.5 °F 6.1 °F 29.54 in WSW 6.0 mph 9.0 mph 63% 0.00 in 0 W/m2
22:00 16.2 °F 5.8 °F 29.54 in WSW 6.0 mph 6.0 mph 63% 0.00 in 0 W/m2
22:06 16.0 °F 5.6 °F 29.54 in WSW 5.0 mph 11.0 mph 63% 0.00 in 0 W/m2
22:14 15.9 °F 5.9 °F 29.53 in WSW 4.0 mph 7.0 mph 64% 0.00 in 0 W/m2
22:20 15.7 °F 5.7 °F 29.53 in West 4.0 mph 4.0 mph 64% 0.00 in 0 W/m2
22:26 15.6 °F 5.9 °F 29.53 in West 5.0 mph 5.0 mph 65% 0.00 in 0 W/m2
22:28 15.6 °F 5.9 °F 29.53 in WSW 5.0 mph 5.0 mph 65% 0.00 in 0 W/m2
22:34 15.4 °F 5.7 °F 29.53 in West 4.0 mph 8.0 mph 65% 0.00 in 0 W/m2
22:40 15.3 °F 6.0 °F 29.52 in SW 4.0 mph 6.0 mph 66% 0.00 in 0 W/m2
22:46 15.1 °F 6.1 °F 29.52 in SW 5.0 mph 6.0 mph 67% 0.00 in 0 W/m2
22:52 15.0 °F 6.0 °F 29.51 in WSW 5.0 mph 5.0 mph 67% 0.00 in 0 W/m2
23:10 14.9 °F 6.2 °F 29.50 in WSW 6.0 mph 6.0 mph 68% 0.00 in 0 W/m2
23:12 14.8 °F 6.1 °F 29.50 in West 6.0 mph 6.0 mph 68% 0.00 in 0 W/m2
23:20 14.8 °F 6.1 °F 29.49 in West 5.0 mph 5.0 mph 68% 0.00 in 0 W/m2
23:26 14.6 °F 6.3 °F 29.49 in West 3.0 mph 12.0 mph 69% 0.00 in 0 W/m2
23:34 14.5 °F 6.2 °F 29.48 in WNW 4.0 mph 5.0 mph 69% 0.00 in 0 W/m2
23:40 14.6 °F 6.3 °F 29.48 in West 5.0 mph 7.0 mph 69% 0.00 in 0 W/m2
23:46 14.6 °F 6.6 °F 29.48 in SW 5.0 mph 15.0 mph 70% 0.00 in 0 W/m2
23:52 14.5 °F 6.5 °F 29.47 in SSW 5.0 mph 7.0 mph 70% 0.00 in 0 W/m2
23:58 14.5 °F 6.5 °F 29.47 in WSW 6.0 mph 7.0 mph 70% 0.00 in 0 W/m2
Country Meadow, Clay, NY, USA
Compliments of Weather Underground - 2 mb